sensor_id;sensor_type;location;lat;lon;timestamp;pressure;altitude;pressure_sealevel;temperature
75773;BMP280;64381;0.000;0.000;2023-04-03T00:00:40;95858.63;;;18.71
75773;BMP280;64381;0.000;0.000;2023-04-03T00:03:06;95858.63;;;18.71
75773;BMP280;64381;0.000;0.000;2023-04-03T00:05:31;95867.47;;;18.69
75773;BMP280;64381;0.000;0.000;2023-04-03T00:07:56;95861.72;;;18.67
75773;BMP280;64381;0.000;0.000;2023-04-03T00:10:22;95860.78;;;18.65
75773;BMP280;64381;0.000;0.000;2023-04-03T00:12:47;95857.69;;;18.68
75773;BMP280;64381;0.000;0.000;2023-04-03T00:15:12;95855.47;;;18.67
75773;BMP280;64381;0.000;0.000;2023-04-03T00:17:38;95860.44;;;18.68
75773;BMP280;64381;0.000;0.000;2023-04-03T00:20:04;95867.47;;;18.69
75773;BMP280;64381;0.000;0.000;2023-04-03T00:22:29;95863.97;;;18.69
75773;BMP280;64381;0.000;0.000;2023-04-03T00:24:55;95861.94;;;18.69
75773;BMP280;64381;0.000;0.000;2023-04-03T00:27:20;95865.97;;;18.68
75773;BMP280;64381;0.000;0.000;2023-04-03T00:29:45;95865.22;;;18.68
75773;BMP280;64381;0.000;0.000;2023-04-03T00:32:11;95860.97;;;18.67
75773;BMP280;64381;0.000;0.000;2023-04-03T00:34:36;95865.75;;;18.66
75773;BMP280;64381;0.000;0.000;2023-04-03T00:37:01;95865.97;;;18.68
75773;BMP280;64381;0.000;0.000;2023-04-03T00:39:26;95873.53;;;18.68
75773;BMP280;64381;0.000;0.000;2023-04-03T00:41:52;95867.25;;;18.67
75773;BMP280;64381;0.000;0.000;2023-04-03T00:44:21;95868.75;;;18.68
75773;BMP280;64381;0.000;0.000;2023-04-03T00:46:47;95870.00;;;18.67
75773;BMP280;64381;0.000;0.000;2023-04-03T00:49:12;95867.03;;;18.65
75773;BMP280;64381;0.000;0.000;2023-04-03T00:51:37;95864.50;;;18.67
75773;BMP280;64381;0.000;0.000;2023-04-03T00:54:04;95865.22;;;18.68
75773;BMP280;64381;0.000;0.000;2023-04-03T00:56:32;95873.53;;;18.68
75773;BMP280;64381;0.000;0.000;2023-04-03T00:59:01;95862.66;;;18.70
75773;BMP280;64381;0.000;0.000;2023-04-03T01:01:28;95865.22;;;18.68
75773;BMP280;64381;0.000;0.000;2023-04-03T01:03:53;95865.75;;;18.66
75773;BMP280;64381;0.000;0.000;2023-04-03T01:06:23;95871.28;;;18.66
75773;BMP280;64381;0.000;0.000;2023-04-03T01:08:50;95862.47;;;18.68
75773;BMP280;64381;0.000;0.000;2023-04-03T01:11:15;95861.50;;;18.65
75773;BMP280;64381;0.000;0.000;2023-04-03T01:13:41;95865.00;;;18.66
75773;BMP280;64381;0.000;0.000;2023-04-03T01:16:06;95860.78;;;18.65
75773;BMP280;64381;0.000;0.000;2023-04-03T01:18:33;95875.31;;;18.65
75773;BMP280;64381;0.000;0.000;2023-04-03T01:26:29;95868.34;;;18.64
75773;BMP280;64381;0.000;0.000;2023-04-03T01:28:55;95874.59;;;18.65
75773;BMP280;64381;0.000;0.000;2023-04-03T01:31:30;95874.78;;;18.67
75773;BMP280;64381;0.000;0.000;2023-04-03T01:33:57;95879.94;;;18.63
75773;BMP280;64381;0.000;0.000;2023-04-03T01:36:26;95877.91;;;18.63
75773;BMP280;64381;0.000;0.000;2023-04-03T01:38:53;95878.09;;;18.65
75773;BMP280;64381;0.000;0.000;2023-04-03T01:41:19;95875.31;;;18.65
75773;BMP280;64381;0.000;0.000;2023-04-03T01:43:44;95869.78;;;18.65
75773;BMP280;64381;0.000;0.000;2023-04-03T01:46:09;95881.44;;;18.64
75773;BMP280;64381;0.000;0.000;2023-04-03T01:48:35;95877.91;;;18.63
75773;BMP280;64381;0.000;0.000;2023-04-03T01:51:00;95879.94;;;18.63
75773;BMP280;64381;0.000;0.000;2023-04-03T01:53:25;95876.44;;;18.62
75773;BMP280;64381;0.000;0.000;2023-04-03T01:55:51;95872.91;;;18.62
75773;BMP280;64381;0.000;0.000;2023-04-03T01:58:16;95879.19;;;18.62
75773;BMP280;64381;0.000;0.000;2023-04-03T02:00:41;95870.16;;;18.62
75773;BMP280;64381;0.000;0.000;2023-04-03T02:03:06;95868.66;;;18.61
75773;BMP280;64381;0.000;0.000;2023-04-03T02:05:32;95874.41;;;18.63
75773;BMP280;64381;0.000;0.000;2023-04-03T02:07:57;95868.88;;;18.63
75773;BMP280;64381;0.000;0.000;2023-04-03T02:10:23;95866.88;;;18.63
75773;BMP280;64381;0.000;0.000;2023-04-03T02:12:48;95866.13;;;18.63
75773;BMP280;64381;0.000;0.000;2023-04-03T02:15:13;95867.41;;;18.62
75773;BMP280;64381;0.000;0.000;2023-04-03T02:17:38;95872.41;;;18.63
75773;BMP280;64381;0.000;0.000;2023-04-03T02:20:04;95871.66;;;18.63
75773;BMP280;64381;0.000;0.000;2023-04-03T02:22:29;95869.63;;;18.63
75773;BMP280;64381;0.000;0.000;2023-04-03T02:24:55;95867.41;;;18.62
75773;BMP280;64381;0.000;0.000;2023-04-03T02:27:20;95872.41;;;18.63
75773;BMP280;64381;0.000;0.000;2023-04-03T02:29:45;95873.13;;;18.64
75773;BMP280;64381;0.000;0.000;2023-04-03T02:32:10;95874.94;;;18.61
75773;BMP280;64381;0.000;0.000;2023-04-03T02:34:36;95865.38;;;18.62
75773;BMP280;64381;0.000;0.000;2023-04-03T02:37:01;95861.13;;;18.61
75773;BMP280;64381;0.000;0.000;2023-04-03T02:39:26;95868.66;;;18.61
75773;BMP280;64381;0.000;0.000;2023-04-03T02:41:51;95866.13;;;18.63
75773;BMP280;64381;0.000;0.000;2023-04-03T02:44:16;95865.19;;;18.60
75773;BMP280;64381;0.000;0.000;2023-04-03T02:46:42;95866.13;;;18.63
75773;BMP280;64381;0.000;0.000;2023-04-03T02:49:07;95862.09;;;18.64
75773;BMP280;64381;0.000;0.000;2023-04-03T02:51:32;95864.63;;;18.62
75773;BMP280;64381;0.000;0.000;2023-04-03T02:53:57;95864.84;;;18.64
75773;BMP280;64381;0.000;0.000;2023-04-03T02:56:23;95873.88;;;18.64
75773;BMP280;64381;0.000;0.000;2023-04-03T02:58:48;95873.88;;;18.64
75773;BMP280;64381;0.000;0.000;2023-04-03T03:01:13;95872.03;;;18.67
75773;BMP280;64381;0.000;0.000;2023-04-03T03:03:39;95869.50;;;18.69
75773;BMP280;64381;0.000;0.000;2023-04-03T03:06:10;95872.78;;;18.67
75773;BMP280;64381;0.000;0.000;2023-04-03T03:08:36;95864.28;;;18.65
75773;BMP280;64381;0.000;0.000;2023-04-03T03:11:02;95873.31;;;18.66
75773;BMP280;64381;0.000;0.000;2023-04-03T03:13:27;95873.31;;;18.66
75773;BMP280;64381;0.000;0.000;2023-04-03T03:15:52;95870.53;;;18.66
75773;BMP280;64381;0.000;0.000;2023-04-03T03:18:18;95880.13;;;18.65
75773;BMP280;64381;0.000;0.000;2023-04-03T03:20:44;95878.09;;;18.65
75773;BMP280;64381;0.000;0.000;2023-04-03T03:23:09;95874.59;;;18.65
75773;BMP280;64381;0.000;0.000;2023-04-03T03:25:41;95879.94;;;18.63
75773;BMP280;64381;0.000;0.000;2023-04-03T03:28:06;95877.91;;;18.63
75773;BMP280;64381;0.000;0.000;2023-04-03T03:30:32;95875.16;;;18.63
75773;BMP280;64381;0.000;0.000;2023-04-03T03:32:57;95881.44;;;18.64
75773;BMP280;64381;0.000;0.000;2023-04-03T03:35:23;95879.94;;;18.63
75773;BMP280;64381;0.000;0.000;2023-04-03T03:37:48;95873.66;;;18.62
75773;BMP280;64381;0.000;0.000;2023-04-03T03:40:13;95877.69;;;18.61
75773;BMP280;64381;0.000;0.000;2023-04-03T03:42:39;95872.41;;;18.63
75773;BMP280;64381;0.000;0.000;2023-04-03T03:45:05;95872.91;;;18.62
75773;BMP280;64381;0.000;0.000;2023-04-03T03:47:30;95872.91;;;18.62
75773;BMP280;64381;0.000;0.000;2023-04-03T03:49:55;95866.66;;;18.61
75773;BMP280;64381;0.000;0.000;2023-04-03T03:52:20;95869.41;;;18.61
75773;BMP280;64381;0.000;0.000;2023-04-03T03:54:46;95880.47;;;18.61
75773;BMP280;64381;0.000;0.000;2023-04-03T03:57:11;95872.91;;;18.62
75773;BMP280;64381;0.000;0.000;2023-04-03T03:59:36;95869.41;;;18.61
75773;BMP280;64381;0.000;0.000;2023-04-03T04:04:29;95868.66;;;18.61
75773;BMP280;64381;0.000;0.000;2023-04-03T04:06:55;95862.41;;;18.60
75773;BMP280;64381;0.000;0.000;2023-04-03T04:09:20;95874.75;;;18.59
75773;BMP280;64381;0.000;0.000;2023-04-03T04:11:45;95867.19;;;18.60
75773;BMP280;64381;0.000;0.000;2023-04-03T04:14:10;95871.44;;;18.61
75773;BMP280;64381;0.000;0.000;2023-04-03T04:16:35;95868.66;;;18.61
75773;BMP280;64381;0.000;0.000;2023-04-03T04:19:01;95871.22;;;18.59
75773;BMP280;64381;0.000;0.000;2023-04-03T04:21:26;95869.97;;;18.60
75773;BMP280;64381;0.000;0.000;2023-04-03T04:23:51;95868.66;;;18.61
75773;BMP280;64381;0.000;0.000;2023-04-03T04:26:16;95873.28;;;18.58
75773;BMP280;64381;0.000;0.000;2023-04-03T04:28:41;95873.47;;;18.60
75773;BMP280;64381;0.000;0.000;2023-04-03T04:31:07;95879.00;;;18.60
75773;BMP280;64381;0.000;0.000;2023-04-03T04:33:32;95878.44;;;18.62
75773;BMP280;64381;0.000;0.000;2023-04-03T04:35:57;95876.97;;;18.61
75773;BMP280;64381;0.000;0.000;2023-04-03T04:38:22;95880.47;;;18.61
75773;BMP280;64381;0.000;0.000;2023-04-03T04:40:48;95879.00;;;18.60
75773;BMP280;64381;0.000;0.000;2023-04-03T04:43:13;95877.69;;;18.61
75773;BMP280;64381;0.000;0.000;2023-04-03T04:45:38;95880.28;;;18.59
75773;BMP280;64381;0.000;0.000;2023-04-03T04:48:04;95883.03;;;18.59
75773;BMP280;64381;0.000;0.000;2023-04-03T04:50:29;95885.78;;;18.59
75773;BMP280;64381;0.000;0.000;2023-04-03T04:52:54;95883.03;;;18.59
75773;BMP280;64381;0.000;0.000;2023-04-03T04:55:20;95885.06;;;18.59
75773;BMP280;64381;0.000;0.000;2023-04-03T04:57:45;95891.13;;;18.57
75773;BMP280;64381;0.000;0.000;2023-04-03T05:00:10;95886.34;;;18.58
75773;BMP280;64381;0.000;0.000;2023-04-03T05:02:36;95887.81;;;18.59
75773;BMP280;64381;0.000;0.000;2023-04-03T05:05:01;95889.31;;;18.60
75773;BMP280;64381;0.000;0.000;2023-04-03T05:07:26;95889.09;;;18.58
75773;BMP280;64381;0.000;0.000;2023-04-03T05:09:52;95886.34;;;18.58
75773;BMP280;64381;0.000;0.000;2023-04-03T05:12:17;95895.91;;;18.57
75773;BMP280;64381;0.000;0.000;2023-04-03T05:14:42;95891.31;;;18.59
75773;BMP280;64381;0.000;0.000;2023-04-03T05:17:07;95893.34;;;18.59
75773;BMP280;64381;0.000;0.000;2023-04-03T05:19:33;95894.09;;;18.59
75773;BMP280;64381;0.000;0.000;2023-04-03T05:21:58;95899.59;;;18.59
75773;BMP280;64381;0.000;0.000;2023-04-03T05:24:23;95895.38;;;18.58
75773;BMP280;64381;0.000;0.000;2023-04-03T05:26:48;95893.34;;;18.59
75773;BMP280;64381;0.000;0.000;2023-04-03T05:29:13;95897.59;;;18.60
75773;BMP280;64381;0.000;0.000;2023-04-03T05:31:39;95896.09;;;18.59
75773;BMP280;64381;0.000;0.000;2023-04-03T05:34:04;95901.09;;;18.60
75773;BMP280;64381;0.000;0.000;2023-04-03T05:36:29;95895.75;;;18.62
75773;BMP280;64381;0.000;0.000;2023-04-03T05:38:54;95902.56;;;18.61
75773;BMP280;64381;0.000;0.000;2023-04-03T05:41:19;95900.03;;;18.63
75773;BMP280;64381;0.000;0.000;2023-04-03T05:43:45;95901.50;;;18.64
75773;BMP280;64381;0.000;0.000;2023-04-03T05:46:12;95906.06;;;18.62
75773;BMP280;64381;0.000;0.000;2023-04-03T05:48:37;95901.50;;;18.64
75773;BMP280;64381;0.000;0.000;2023-04-03T05:51:04;95898.75;;;18.64
75773;BMP280;64381;0.000;0.000;2023-04-03T05:53:31;95902.94;;;18.65
75773;BMP280;64381;0.000;0.000;2023-04-03T05:55:58;95905.31;;;18.61
75773;BMP280;64381;0.000;0.000;2023-04-03T05:58:23;95905.00;;;18.65
75773;BMP280;64381;0.000;0.000;2023-04-03T06:00:48;95899.28;;;18.63
75773;BMP280;64381;0.000;0.000;2023-04-03T06:03:13;95901.28;;;18.62
75773;BMP280;64381;0.000;0.000;2023-04-03T06:05:39;95911.81;;;18.64
75773;BMP280;64381;0.000;0.000;2023-04-03T06:08:04;95908.84;;;18.62
75773;BMP280;64381;0.000;0.000;2023-04-03T06:10:29;95911.06;;;18.63
75773;BMP280;64381;0.000;0.000;2023-04-03T06:12:55;95909.59;;;18.62
75773;BMP280;64381;0.000;0.000;2023-04-03T06:15:20;95911.06;;;18.63
75773;BMP280;64381;0.000;0.000;2023-04-03T06:17:45;95916.59;;;18.63
75773;BMP280;64381;0.000;0.000;2023-04-03T06:20:11;95911.47;;;18.67
75773;BMP280;64381;0.000;0.000;2023-04-03T06:22:36;95916.97;;;18.67
75773;BMP280;64381;0.000;0.000;2023-04-03T06:25:02;95919.22;;;18.69
75773;BMP280;64381;0.000;0.000;2023-04-03T06:27:27;95919.41;;;18.71
75773;BMP280;64381;0.000;0.000;2023-04-03T06:29:52;95918.88;;;18.72
75773;BMP280;64381;0.000;0.000;2023-04-03T06:32:18;95919.81;;;18.75
75773;BMP280;64381;0.000;0.000;2023-04-03T06:34:43;95920.53;;;18.75
75773;BMP280;64381;0.000;0.000;2023-04-03T06:37:16;95922.22;;;18.78
75773;BMP280;64381;0.000;0.000;2023-04-03T06:39:42;95920.53;;;18.75
75773;BMP280;64381;0.000;0.000;2023-04-03T06:42:07;95923.53;;;18.77
75773;BMP280;64381;0.000;0.000;2023-04-03T06:44:33;95926.28;;;18.77
75773;BMP280;64381;0.000;0.000;2023-04-03T06:46:58;95930.34;;;18.76
75773;BMP280;64381;0.000;0.000;2023-04-03T06:49:23;95931.81;;;18.77
75773;BMP280;64381;0.000;0.000;2023-04-03T06:51:48;95930.53;;;18.78
75773;BMP280;64381;0.000;0.000;2023-04-03T06:54:13;95929.22;;;18.79
75773;BMP280;64381;0.000;0.000;2023-04-03T06:56:39;95931.97;;;18.79
75773;BMP280;64381;0.000;0.000;2023-04-03T06:59:04;95930.72;;;18.80
75773;BMP280;64381;0.000;0.000;2023-04-03T07:01:29;95934.97;;;18.81
75773;BMP280;64381;0.000;0.000;2023-04-03T07:03:55;95932.22;;;18.81
75773;BMP280;64381;0.000;0.000;2023-04-03T07:06:21;95936.25;;;18.80
75773;BMP280;64381;0.000;0.000;2023-04-03T07:08:46;95943.25;;;18.81
75773;BMP280;64381;0.000;0.000;2023-04-03T07:11:12;95944.75;;;18.82
75773;BMP280;64381;0.000;0.000;2023-04-03T07:13:38;95946.78;;;18.82
75773;BMP280;64381;0.000;0.000;2023-04-03T07:16:03;95942.75;;;18.83
75773;BMP280;64381;0.000;0.000;2023-04-03T07:18:29;95942.16;;;18.84
75773;BMP280;64381;0.000;0.000;2023-04-03T07:20:54;95948.97;;;18.83
75773;BMP280;64381;0.000;0.000;2023-04-03T07:23:19;95950.28;;;18.82
75773;BMP280;64381;0.000;0.000;2023-04-03T07:25:46;95951.75;;;18.83
75773;BMP280;64381;0.000;0.000;2023-04-03T07:28:12;95950.28;;;18.82
75773;BMP280;64381;0.000;0.000;2023-04-03T07:31:00;95956.72;;;18.85
75773;BMP280;64381;0.000;0.000;2023-04-03T07:33:26;95954.31;;;18.81
75773;BMP280;64381;0.000;0.000;2023-04-03T07:35:51;95960.59;;;18.82
75773;BMP280;64381;0.000;0.000;2023-04-03T07:38:17;95960.03;;;18.83
75773;BMP280;64381;0.000;0.000;2023-04-03T07:40:47;95959.47;;;18.85
75773;BMP280;64381;0.000;0.000;2023-04-03T07:43:12;95968.34;;;18.83
75773;BMP280;64381;0.000;0.000;2023-04-03T07:45:38;95968.34;;;18.83
75773;BMP280;64381;0.000;0.000;2023-04-03T07:48:03;95966.88;;;18.82
75773;BMP280;64381;0.000;0.000;2023-04-03T07:50:28;95977.91;;;18.82
75773;BMP280;64381;0.000;0.000;2023-04-03T07:52:53;95969.63;;;18.82
75773;BMP280;64381;0.000;0.000;2023-04-03T07:55:19;95983.44;;;18.82
75773;BMP280;64381;0.000;0.000;2023-04-03T07:57:44;95978.97;;;18.79
75773;BMP280;64381;0.000;0.000;2023-04-03T08:00:10;95988.22;;;18.82
75773;BMP280;64381;0.000;0.000;2023-04-03T08:02:35;95979.94;;;18.82
75773;BMP280;64381;0.000;0.000;2023-04-03T08:05:01;95977.91;;;18.82
75773;BMP280;64381;0.000;0.000;2023-04-03T08:07:26;95982.69;;;18.82
75773;BMP280;64381;0.000;0.000;2023-04-03T08:09:51;95989.50;;;18.81
75773;BMP280;64381;0.000;0.000;2023-04-03T08:12:16;95991.00;;;18.82
75773;BMP280;64381;0.000;0.000;2023-04-03T08:14:42;95989.50;;;18.81
75773;BMP280;64381;0.000;0.000;2023-04-03T08:17:08;95979.19;;;18.81
75773;BMP280;64381;0.000;0.000;2023-04-03T08:19:33;95987.25;;;18.79
75773;BMP280;64381;0.000;0.000;2023-04-03T08:21:59;95988.97;;;18.82
75773;BMP280;64381;0.000;0.000;2023-04-03T08:24:24;95979.94;;;18.82
75773;BMP280;64381;0.000;0.000;2023-04-03T08:26:50;95988.00;;;18.80
75773;BMP280;64381;0.000;0.000;2023-04-03T08:29:15;95983.22;;;18.80
75773;BMP280;64381;0.000;0.000;2023-04-03T08:31:40;95988.75;;;18.80
75773;BMP280;64381;0.000;0.000;2023-04-03T08:34:05;95986.00;;;18.80
75773;BMP280;64381;0.000;0.000;2023-04-03T08:36:30;95982.16;;;18.83
75773;BMP280;64381;0.000;0.000;2023-04-03T08:38:56;95987.25;;;18.79
75773;BMP280;64381;0.000;0.000;2023-04-03T08:41:37;95988.97;;;18.82
75773;BMP280;64381;0.000;0.000;2023-04-03T08:44:04;95998.31;;;18.79
75773;BMP280;64381;0.000;0.000;2023-04-03T08:49:42;95995.78;;;18.81
75773;BMP280;64381;0.000;0.000;2023-04-03T08:52:11;95995.56;;;18.79
75773;BMP280;64381;0.000;0.000;2023-04-03T08:54:48;95997.78;;;18.81
75773;BMP280;64381;0.000;0.000;2023-04-03T08:57:14;95998.31;;;18.79
75773;BMP280;64381;0.000;0.000;2023-04-03T08:59:39;96001.81;;;18.80
75773;BMP280;64381;0.000;0.000;2023-04-03T09:02:21;95998.53;;;18.81
75773;BMP280;64381;0.000;0.000;2023-04-03T09:04:48;96002.38;;;18.78
75773;BMP280;64381;0.000;0.000;2023-04-03T09:07:22;95990.44;;;18.83
75773;BMP280;64381;0.000;0.000;2023-04-03T09:09:48;95998.53;;;18.81
75773;BMP280;64381;0.000;0.000;2023-04-03T09:12:19;95997.03;;;18.80
75773;BMP280;64381;0.000;0.000;2023-04-03T09:23:19;95997.03;;;18.80
75773;BMP280;64381;0.000;0.000;2023-04-03T09:25:46;96000.16;;;18.77
75773;BMP280;64381;0.000;0.000;2023-04-03T09:28:11;96000.56;;;18.81
75773;BMP280;64381;0.000;0.000;2023-04-03T09:30:37;95992.78;;;18.79
75773;BMP280;64381;0.000;0.000;2023-04-03T09:33:02;95997.78;;;18.81
75773;BMP280;64381;0.000;0.000;2023-04-03T09:35:34;95988.75;;;18.80
75773;BMP280;64381;0.000;0.000;2023-04-03T09:38:13;95991.50;;;18.80
75773;BMP280;64381;0.000;0.000;2023-04-03T09:40:41;95990.78;;;18.80
75773;BMP280;64381;0.000;0.000;2023-04-03T09:43:26;95999.06;;;18.80
75773;BMP280;64381;0.000;0.000;2023-04-03T09:45:52;95989.28;;;18.79
75773;BMP280;64381;0.000;0.000;2023-04-03T09:48:23;96004.59;;;18.80
75773;BMP280;64381;0.000;0.000;2023-04-03T09:50:57;95995.03;;;18.81
75773;BMP280;64381;0.000;0.000;2023-04-03T09:55:58;95990.78;;;18.80
75773;BMP280;64381;0.000;0.000;2023-04-03T09:58:31;95997.78;;;18.81
75773;BMP280;64381;0.000;0.000;2023-04-03T10:00:59;95995.03;;;18.81
75773;BMP280;64381;0.000;0.000;2023-04-03T10:03:30;95995.03;;;18.81
75773;BMP280;64381;0.000;0.000;2023-04-03T10:05:56;95990.78;;;18.80
75773;BMP280;64381;0.000;0.000;2023-04-03T10:08:25;95996.28;;;18.80
75773;BMP280;64381;0.000;0.000;2023-04-03T10:11:12;95988.22;;;18.82
75773;BMP280;64381;0.000;0.000;2023-04-03T10:13:58;95991.75;;;18.82
75773;BMP280;64381;0.000;0.000;2023-04-03T10:16:27;95985.25;;;18.80
75773;BMP280;64381;0.000;0.000;2023-04-03T10:19:39;95988.97;;;18.82
75773;BMP280;64381;0.000;0.000;2023-04-03T10:22:06;95986.00;;;18.80
75773;BMP280;64381;0.000;0.000;2023-04-03T10:27:24;95990.25;;;18.81
75773;BMP280;64381;0.000;0.000;2023-04-03T10:33:02;95983.63;;;18.84
75773;BMP280;64381;0.000;0.000;2023-04-03T10:38:33;95987.69;;;18.83
75773;BMP280;64381;0.000;0.000;2023-04-03T10:46:57;95989.50;;;18.81
75773;BMP280;64381;0.000;0.000;2023-04-03T10:50:11;95990.44;;;18.83
75773;BMP280;64381;0.000;0.000;2023-04-03T10:52:44;95987.47;;;18.81
75773;BMP280;64381;0.000;0.000;2023-04-03T10:55:31;95994.50;;;18.82
75773;BMP280;64381;0.000;0.000;2023-04-03T10:57:59;95999.28;;;18.82
75773;BMP280;64381;0.000;0.000;2023-04-03T11:00:36;95991.75;;;18.82
75773;BMP280;64381;0.000;0.000;2023-04-03T11:03:09;95996.53;;;18.82
75773;BMP280;64381;0.000;0.000;2023-04-03T11:05:41;95996.72;;;18.84
75773;BMP280;64381;0.000;0.000;2023-04-03T11:08:33;95994.66;;;18.84
75773;BMP280;64381;0.000;0.000;2023-04-03T11:11:14;95990.44;;;18.83
75773;BMP280;64381;0.000;0.000;2023-04-03T11:13:44;95993.00;;;18.81
75773;BMP280;64381;0.000;0.000;2023-04-03T11:16:17;95988.41;;;18.84
75773;BMP280;64381;0.000;0.000;2023-04-03T11:18:49;95994.50;;;18.82
75773;BMP280;64381;0.000;0.000;2023-04-03T11:21:29;95987.13;;;18.85
75773;BMP280;64381;0.000;0.000;2023-04-03T11:23:57;95980.69;;;18.82
75773;BMP280;64381;0.000;0.000;2023-04-03T11:26:27;95982.34;;;18.85
75773;BMP280;64381;0.000;0.000;2023-04-03T11:28:59;95984.59;;;18.87
75773;BMP280;64381;0.000;0.000;2023-04-03T11:36:33;95981.06;;;18.86
75773;BMP280;64381;0.000;0.000;2023-04-03T11:39:07;95978.31;;;18.86
75773;BMP280;64381;0.000;0.000;2023-04-03T11:41:35;95980.50;;;18.88
75773;BMP280;64381;0.000;0.000;2023-04-03T11:44:05;95982.00;;;18.89
75773;BMP280;64381;0.000;0.000;2023-04-03T11:46:55;95982.94;;;18.91
75773;BMP280;64381;0.000;0.000;2023-04-03T12:13:33;95964.34;;;18.92
75773;BMP280;64381;0.000;0.000;2023-04-03T12:15:58;95961.59;;;18.92
75773;BMP280;64381;0.000;0.000;2023-04-03T12:18:43;95965.06;;;18.92
75773;BMP280;64381;0.000;0.000;2023-04-03T12:21:11;95958.63;;;18.90
75773;BMP280;64381;0.000;0.000;2023-04-03T12:23:56;95959.53;;;18.92
75773;BMP280;64381;0.000;0.000;2023-04-03T12:26:26;95961.59;;;18.92
75773;BMP280;64381;0.000;0.000;2023-04-03T12:28:53;95955.50;;;18.93
75773;BMP280;64381;0.000;0.000;2023-04-03T12:31:21;95963.03;;;18.93
75773;BMP280;64381;0.000;0.000;2023-04-03T12:34:01;95958.25;;;18.93
75773;BMP280;64381;0.000;0.000;2023-04-03T12:39:22;95954.97;;;18.95
75773;BMP280;64381;0.000;0.000;2023-04-03T12:42:32;95954.22;;;18.94
75773;BMP280;64381;0.000;0.000;2023-04-03T12:45:19;95950.72;;;18.94
75773;BMP280;64381;0.000;0.000;2023-04-03T12:47:45;95942.94;;;18.92
75773;BMP280;64381;0.000;0.000;2023-04-03T12:50:25;95942.44;;;18.94
75773;BMP280;64381;0.000;0.000;2023-04-03T12:53:19;95943.91;;;18.95
75773;BMP280;64381;0.000;0.000;2023-04-03T12:55:46;95936.72;;;18.92
75773;BMP280;64381;0.000;0.000;2023-04-03T12:58:22;95935.41;;;18.93
75773;BMP280;64381;0.000;0.000;2023-04-03T13:01:02;95932.66;;;18.93
75773;BMP280;64381;0.000;0.000;2023-04-03T13:03:28;95933.94;;;18.92
75773;BMP280;64381;0.000;0.000;2023-04-03T13:06:01;95934.13;;;18.94
75773;BMP280;64381;0.000;0.000;2023-04-03T13:08:27;95935.97;;;18.91
75773;BMP280;64381;0.000;0.000;2023-04-03T13:11:03;95929.34;;;18.94
75773;BMP280;64381;0.000;0.000;2023-04-03T13:13:29;95929.34;;;18.94
75773;BMP280;64381;0.000;0.000;2023-04-03T13:15:54;95927.84;;;18.93
75773;BMP280;64381;0.000;0.000;2023-04-03T13:18:32;95930.84;;;18.95
75773;BMP280;64381;0.000;0.000;2023-04-03T13:21:01;95933.59;;;18.95
75773;BMP280;64381;0.000;0.000;2023-04-03T13:23:28;95922.34;;;18.93
75773;BMP280;64381;0.000;0.000;2023-04-03T13:25:54;95924.72;;;18.97
75773;BMP280;64381;0.000;0.000;2023-04-03T13:28:22;95931.00;;;18.97
75773;BMP280;64381;0.000;0.000;2023-04-03T13:31:02;95919.03;;;18.95
75773;BMP280;64381;0.000;0.000;2023-04-03T13:33:31;95921.06;;;18.94
75773;BMP280;64381;0.000;0.000;2023-04-03T13:36:02;95917.19;;;18.97
75773;BMP280;64381;0.000;0.000;2023-04-03T13:38:29;95915.91;;;18.98
75773;BMP280;64381;0.000;0.000;2023-04-03T13:40:57;95906.72;;;18.96
75773;BMP280;64381;0.000;0.000;2023-04-03T13:43:26;95908.72;;;18.95
75773;BMP280;64381;0.000;0.000;2023-04-03T13:48:24;95904.47;;;18.94
75773;BMP280;64381;0.000;0.000;2023-04-03T13:50:57;95902.63;;;18.97
75773;BMP280;64381;0.000;0.000;2023-04-03T13:53:24;95909.47;;;18.96
75773;BMP280;64381;0.000;0.000;2023-04-03T13:58:31;95903.94;;;18.96
75773;BMP280;64381;0.000;0.000;2023-04-03T14:01:18;95908.88;;;18.97
75773;BMP280;64381;0.000;0.000;2023-04-03T14:06:13;95905.38;;;18.97
75773;BMP280;64381;0.000;0.000;2023-04-03T14:08:39;95907.44;;;18.96
75773;BMP280;64381;0.000;0.000;2023-04-03T14:11:05;95905.38;;;18.97
75773;BMP280;64381;0.000;0.000;2023-04-03T14:13:30;95901.94;;;18.96
75773;BMP280;64381;0.000;0.000;2023-04-03T14:15:56;95908.88;;;18.97
75773;BMP280;64381;0.000;0.000;2023-04-03T14:18:21;95899.69;;;18.95
75773;BMP280;64381;0.000;0.000;2023-04-03T14:20:48;95901.19;;;18.96
75773;BMP280;64381;0.000;0.000;2023-04-03T14:23:13;95904.69;;;18.96
75773;BMP280;64381;0.000;0.000;2023-04-03T14:25:39;95902.44;;;18.95
75773;BMP280;64381;0.000;0.000;2023-04-03T14:28:20;95886.63;;;18.95
75773;BMP280;64381;0.000;0.000;2023-04-03T14:30:46;95892.13;;;18.95
75773;BMP280;64381;0.000;0.000;2023-04-03T14:33:17;95893.63;;;18.96
75773;BMP280;64381;0.000;0.000;2023-04-03T14:35:43;95882.88;;;18.93
75773;BMP280;64381;0.000;0.000;2023-04-03T14:38:22;95892.88;;;18.96
75773;BMP280;64381;0.000;0.000;2023-04-03T14:40:48;95888.41;;;18.93
75773;BMP280;64381;0.000;0.000;2023-04-03T14:43:14;95893.75;;;18.91
75773;BMP280;64381;0.000;0.000;2023-04-03T14:45:39;95893.94;;;18.93
75773;BMP280;64381;0.000;0.000;2023-04-03T14:48:06;95892.66;;;18.94
75773;BMP280;64381;0.000;0.000;2023-04-03T14:50:34;95882.88;;;18.93
75773;BMP280;64381;0.000;0.000;2023-04-03T14:52:59;95884.38;;;18.94
75773;BMP280;64381;0.000;0.000;2023-04-03T14:55:25;95888.41;;;18.93
75773;BMP280;64381;0.000;0.000;2023-04-03T14:57:51;95892.47;;;18.92
75773;BMP280;64381;0.000;0.000;2023-04-03T15:00:20;95894.50;;;18.91
75773;BMP280;64381;0.000;0.000;2023-04-03T15:02:46;95885.66;;;18.93
75773;BMP280;64381;0.000;0.000;2023-04-03T15:05:11;95883.25;;;18.89
75773;BMP280;64381;0.000;0.000;2023-04-03T15:07:40;95881.97;;;18.90
75773;BMP280;64381;0.000;0.000;2023-04-03T15:10:16;95885.13;;;18.94
75773;BMP280;64381;0.000;0.000;2023-04-03T15:12:42;95889.53;;;18.90
75773;BMP280;64381;0.000;0.000;2023-04-03T15:15:08;95881.97;;;18.90
75773;BMP280;64381;0.000;0.000;2023-04-03T15:17:35;95877.72;;;18.89
75773;BMP280;64381;0.000;0.000;2023-04-03T15:20:01;95882.50;;;18.89
75773;BMP280;64381;0.000;0.000;2023-04-03T15:22:26;95890.81;;;18.89
75773;BMP280;64381;0.000;0.000;2023-04-03T15:24:52;95889.53;;;18.90
75773;BMP280;64381;0.000;0.000;2023-04-03T15:27:18;95890.06;;;18.88
75773;BMP280;64381;0.000;0.000;2023-04-03T15:29:44;95894.31;;;18.89
75773;BMP280;64381;0.000;0.000;2023-04-03T15:32:10;95894.31;;;18.89
75773;BMP280;64381;0.000;0.000;2023-04-03T15:34:36;95888.78;;;18.89
75773;BMP280;64381;0.000;0.000;2023-04-03T15:37:01;95888.22;;;18.91
75773;BMP280;64381;0.000;0.000;2023-04-03T15:39:27;95888.78;;;18.89
75773;BMP280;64381;0.000;0.000;2023-04-03T15:41:52;95888.78;;;18.89